sensor_id;sensor_type;location;lat;lon;timestamp;P1;durP1;ratioP1;P2;durP2;ratioP2
9461;SDS011;4769;42.660;23.262;2023-05-24T00:02:05;7.60;;;5.85;;
9461;SDS011;4769;42.660;23.262;2023-05-24T00:04:32;7.80;;;6.00;;
9461;SDS011;4769;42.660;23.262;2023-05-24T00:06:58;6.32;;;5.45;;
9461;SDS011;4769;42.660;23.262;2023-05-24T00:09:26;7.38;;;5.25;;
9461;SDS011;4769;42.660;23.262;2023-05-24T00:11:52;6.88;;;5.25;;
9461;SDS011;4769;42.660;23.262;2023-05-24T00:14:17;5.85;;;5.25;;
9461;SDS011;4769;42.660;23.262;2023-05-24T00:16:43;8.05;;;5.60;;
9461;SDS011;4769;42.660;23.262;2023-05-24T00:19:09;6.30;;;5.35;;
9461;SDS011;4769;42.660;23.262;2023-05-24T00:21:34;7.78;;;5.80;;
9461;SDS011;4769;42.660;23.262;2023-05-24T00:24:00;7.57;;;5.60;;
9461;SDS011;4769;42.660;23.262;2023-05-24T00:26:30;8.75;;;6.20;;
9461;SDS011;4769;42.660;23.262;2023-05-24T00:28:56;7.80;;;6.22;;
9461;SDS011;4769;42.660;23.262;2023-05-24T00:31:21;6.03;;;5.43;;
9461;SDS011;4769;42.660;23.262;2023-05-24T00:33:47;6.35;;;5.70;;
9461;SDS011;4769;42.660;23.262;2023-05-24T00:36:13;6.43;;;5.72;;
9461;SDS011;4769;42.660;23.262;2023-05-24T00:38:40;6.93;;;6.28;;
9461;SDS011;4769;42.660;23.262;2023-05-24T00:41:06;6.05;;;5.10;;
9461;SDS011;4769;42.660;23.262;2023-05-24T00:43:35;6.25;;;5.65;;
9461;SDS011;4769;42.660;23.262;2023-05-24T00:48:45;6.15;;;5.25;;
9461;SDS011;4769;42.660;23.262;2023-05-24T00:51:13;8.55;;;6.15;;
9461;SDS011;4769;42.660;23.262;2023-05-24T00:53:42;9.45;;;6.03;;
9461;SDS011;4769;42.660;23.262;2023-05-24T00:56:12;8.25;;;6.18;;
9461;SDS011;4769;42.660;23.262;2023-05-24T00:58:42;7.57;;;6.07;;
9461;SDS011;4769;42.660;23.262;2023-05-24T01:01:09;6.47;;;5.30;;
9461;SDS011;4769;42.660;23.262;2023-05-24T01:03:35;8.68;;;5.75;;
9461;SDS011;4769;42.660;23.262;2023-05-24T01:06:04;7.95;;;5.40;;
9461;SDS011;4769;42.660;23.262;2023-05-24T01:08:36;6.55;;;5.60;;
9461;SDS011;4769;42.660;23.262;2023-05-24T01:11:11;7.40;;;5.57;;
9461;SDS011;4769;42.660;23.262;2023-05-24T01:13:53;8.32;;;5.32;;
9461;SDS011;4769;42.660;23.262;2023-05-24T01:16:30;6.80;;;5.25;;
9461;SDS011;4769;42.660;23.262;2023-05-24T01:19:09;6.00;;;5.38;;
9461;SDS011;4769;42.660;23.262;2023-05-24T01:22:00;6.15;;;5.55;;
9461;SDS011;4769;42.660;23.262;2023-05-24T01:24:40;7.95;;;5.93;;
9461;SDS011;4769;42.660;23.262;2023-05-24T01:27:20;9.43;;;5.50;;
9461;SDS011;4769;42.660;23.262;2023-05-24T01:29:46;8.25;;;5.18;;
9461;SDS011;4769;42.660;23.262;2023-05-24T01:32:13;5.60;;;5.07;;
9461;SDS011;4769;42.660;23.262;2023-05-24T01:34:39;9.10;;;5.22;;
9461;SDS011;4769;42.660;23.262;2023-05-24T01:37:05;5.90;;;4.78;;
9461;SDS011;4769;42.660;23.262;2023-05-24T01:39:31;6.40;;;5.40;;
9461;SDS011;4769;42.660;23.262;2023-05-24T01:42:00;7.03;;;6.05;;
9461;SDS011;4769;42.660;23.262;2023-05-24T01:44:36;10.75;;;5.80;;
9461;SDS011;4769;42.660;23.262;2023-05-24T01:47:10;9.57;;;6.18;;
9461;SDS011;4769;42.660;23.262;2023-05-24T01:49:52;8.50;;;5.90;;
9461;SDS011;4769;42.660;23.262;2023-05-24T01:52:21;8.50;;;5.90;;
9461;SDS011;4769;42.660;23.262;2023-05-24T01:54:51;8.00;;;5.53;;
9461;SDS011;4769;42.660;23.262;2023-05-24T01:57:20;6.88;;;6.13;;
9461;SDS011;4769;42.660;23.262;2023-05-24T01:59:51;6.95;;;6.25;;
9461;SDS011;4769;42.660;23.262;2023-05-24T02:02:18;6.93;;;6.22;;
9461;SDS011;4769;42.660;23.262;2023-05-24T02:04:44;6.72;;;5.72;;
9461;SDS011;4769;42.660;23.262;2023-05-24T02:07:10;7.22;;;5.70;;
9461;SDS011;4769;42.660;23.262;2023-05-24T02:09:36;8.60;;;6.13;;
9461;SDS011;4769;42.660;23.262;2023-05-24T02:12:02;7.13;;;5.80;;
9461;SDS011;4769;42.660;23.262;2023-05-24T02:14:30;7.18;;;6.25;;
9461;SDS011;4769;42.660;23.262;2023-05-24T02:16:59;7.18;;;6.43;;
9461;SDS011;4769;42.660;23.262;2023-05-24T02:19:24;8.35;;;5.82;;
9461;SDS011;4769;42.660;23.262;2023-05-24T02:21:50;6.38;;;5.78;;
9461;SDS011;4769;42.660;23.262;2023-05-24T02:24:16;7.68;;;6.05;;
9461;SDS011;4769;42.660;23.262;2023-05-24T02:26:42;10.07;;;6.82;;
9461;SDS011;4769;42.660;23.262;2023-05-24T02:29:07;6.88;;;6.18;;
9461;SDS011;4769;42.660;23.262;2023-05-24T02:31:33;7.90;;;6.28;;
9461;SDS011;4769;42.660;23.262;2023-05-24T02:34:02;6.38;;;5.78;;
9461;SDS011;4769;42.660;23.262;2023-05-24T02:36:27;6.35;;;5.75;;
9461;SDS011;4769;42.660;23.262;2023-05-24T02:38:53;8.43;;;5.72;;
9461;SDS011;4769;42.660;23.262;2023-05-24T02:41:19;7.93;;;6.00;;
9461;SDS011;4769;42.660;23.262;2023-05-24T02:43:45;7.78;;;6.63;;
9461;SDS011;4769;42.660;23.262;2023-05-24T02:46:11;7.22;;;6.53;;
9461;SDS011;4769;42.660;23.262;2023-05-24T02:48:38;9.48;;;6.40;;
9461;SDS011;4769;42.660;23.262;2023-05-24T02:51:06;7.82;;;6.63;;
9461;SDS011;4769;42.660;23.262;2023-05-24T02:53:34;8.15;;;6.80;;
9461;SDS011;4769;42.660;23.262;2023-05-24T02:56:00;6.97;;;6.38;;
9461;SDS011;4769;42.660;23.262;2023-05-24T02:58:25;10.10;;;6.97;;
9461;SDS011;4769;42.660;23.262;2023-05-24T03:00:51;7.53;;;6.80;;
9461;SDS011;4769;42.660;23.262;2023-05-24T03:03:17;6.93;;;6.20;;
9461;SDS011;4769;42.660;23.262;2023-05-24T03:05:43;8.55;;;6.72;;
9461;SDS011;4769;42.660;23.262;2023-05-24T03:08:11;8.73;;;6.45;;
9461;SDS011;4769;42.660;23.262;2023-05-24T03:10:37;7.57;;;5.97;;
9461;SDS011;4769;42.660;23.262;2023-05-24T03:13:03;8.55;;;5.82;;
9461;SDS011;4769;42.660;23.262;2023-05-24T03:15:29;7.93;;;5.70;;
9461;SDS011;4769;42.660;23.262;2023-05-24T03:17:55;8.95;;;6.20;;
9461;SDS011;4769;42.660;23.262;2023-05-24T03:20:20;7.68;;;6.35;;
9461;SDS011;4769;42.660;23.262;2023-05-24T03:22:46;8.90;;;6.22;;
9461;SDS011;4769;42.660;23.262;2023-05-24T03:25:16;6.15;;;5.55;;
9461;SDS011;4769;42.660;23.262;2023-05-24T03:27:42;7.32;;;6.40;;
9461;SDS011;4769;42.660;23.262;2023-05-24T03:30:08;7.32;;;6.00;;
9461;SDS011;4769;42.660;23.262;2023-05-24T03:32:36;8.15;;;5.50;;
9461;SDS011;4769;42.660;23.262;2023-05-24T03:35:02;6.70;;;6.00;;
9461;SDS011;4769;42.660;23.262;2023-05-24T03:37:28;11.43;;;5.35;;
9461;SDS011;4769;42.660;23.262;2023-05-24T03:39:54;6.85;;;5.60;;
9461;SDS011;4769;42.660;23.262;2023-05-24T03:42:23;8.40;;;5.25;;
9461;SDS011;4769;42.660;23.262;2023-05-24T03:44:48;8.20;;;5.95;;
9461;SDS011;4769;42.660;23.262;2023-05-24T03:47:14;8.07;;;5.97;;
9461;SDS011;4769;42.660;23.262;2023-05-24T03:49:40;11.35;;;6.18;;
9461;SDS011;4769;42.660;23.262;2023-05-24T03:52:06;6.30;;;5.70;;
9461;SDS011;4769;42.660;23.262;2023-05-24T03:54:31;10.00;;;7.13;;
9461;SDS011;4769;42.660;23.262;2023-05-24T03:56:57;8.85;;;6.35;;
9461;SDS011;4769;42.660;23.262;2023-05-24T03:59:25;6.43;;;5.82;;
9461;SDS011;4769;42.660;23.262;2023-05-24T04:01:51;8.77;;;6.57;;
9461;SDS011;4769;42.660;23.262;2023-05-24T04:04:17;22.52;;;8.75;;
9461;SDS011;4769;42.660;23.262;2023-05-24T04:06:43;12.50;;;7.70;;
9461;SDS011;4769;42.660;23.262;2023-05-24T04:09:08;10.82;;;6.88;;
9461;SDS011;4769;42.660;23.262;2023-05-24T04:11:34;8.55;;;6.72;;
9461;SDS011;4769;42.660;23.262;2023-05-24T04:14:00;12.02;;;6.90;;
9461;SDS011;4769;42.660;23.262;2023-05-24T04:16:29;10.02;;;6.28;;
9461;SDS011;4769;42.660;23.262;2023-05-24T04:18:55;11.00;;;7.78;;
9461;SDS011;4769;42.660;23.262;2023-05-24T04:21:21;9.80;;;8.18;;
9461;SDS011;4769;42.660;23.262;2023-05-24T04:23:46;12.02;;;6.93;;
9461;SDS011;4769;42.660;23.262;2023-05-24T04:26:12;12.55;;;7.47;;
9461;SDS011;4769;42.660;23.262;2023-05-24T04:28:38;7.88;;;7.05;;
9461;SDS011;4769;42.660;23.262;2023-05-24T04:31:04;10.10;;;7.25;;
9461;SDS011;4769;42.660;23.262;2023-05-24T04:33:38;8.70;;;6.18;;
9461;SDS011;4769;42.660;23.262;2023-05-24T04:36:07;9.73;;;6.20;;
9461;SDS011;4769;42.660;23.262;2023-05-24T04:38:42;9.30;;;5.25;;
9461;SDS011;4769;42.660;23.262;2023-05-24T04:41:08;14.95;;;6.20;;
9461;SDS011;4769;42.660;23.262;2023-05-24T04:43:35;8.73;;;6.18;;
9461;SDS011;4769;42.660;23.262;2023-05-24T04:46:01;11.63;;;6.40;;
9461;SDS011;4769;42.660;23.262;2023-05-24T04:48:27;14.10;;;7.00;;
9461;SDS011;4769;42.660;23.262;2023-05-24T04:50:56;11.32;;;7.20;;
9461;SDS011;4769;42.660;23.262;2023-05-24T04:53:22;8.65;;;7.07;;
9461;SDS011;4769;42.660;23.262;2023-05-24T04:55:49;9.63;;;6.65;;
9461;SDS011;4769;42.660;23.262;2023-05-24T04:58:15;8.45;;;6.70;;
9461;SDS011;4769;42.660;23.262;2023-05-24T05:00:41;11.88;;;7.60;;
9461;SDS011;4769;42.660;23.262;2023-05-24T05:03:08;17.17;;;6.90;;
9461;SDS011;4769;42.660;23.262;2023-05-24T05:05:34;9.77;;;7.05;;
9461;SDS011;4769;42.660;23.262;2023-05-24T05:08:02;12.25;;;7.35;;
9461;SDS011;4769;42.660;23.262;2023-05-24T05:10:29;10.93;;;6.57;;
9461;SDS011;4769;42.660;23.262;2023-05-24T05:12:54;10.02;;;7.72;;
9461;SDS011;4769;42.660;23.262;2023-05-24T05:15:21;13.90;;;7.90;;
9461;SDS011;4769;42.660;23.262;2023-05-24T05:17:47;9.00;;;7.30;;
9461;SDS011;4769;42.660;23.262;2023-05-24T05:20:13;14.13;;;7.35;;
9461;SDS011;4769;42.660;23.262;2023-05-24T05:22:44;8.02;;;7.10;;
9461;SDS011;4769;42.660;23.262;2023-05-24T05:25:13;12.43;;;7.80;;
9461;SDS011;4769;42.660;23.262;2023-05-24T05:27:38;17.60;;;8.40;;
9461;SDS011;4769;42.660;23.262;2023-05-24T05:30:05;13.63;;;8.35;;
9461;SDS011;4769;42.660;23.262;2023-05-24T05:32:31;14.88;;;9.40;;
9461;SDS011;4769;42.660;23.262;2023-05-24T05:34:57;14.10;;;9.02;;
9461;SDS011;4769;42.660;23.262;2023-05-24T05:37:23;14.00;;;8.98;;
9461;SDS011;4769;42.660;23.262;2023-05-24T05:39:49;19.00;;;10.70;;
9461;SDS011;4769;42.660;23.262;2023-05-24T05:42:19;15.10;;;10.05;;
9461;SDS011;4769;42.660;23.262;2023-05-24T05:44:45;14.98;;;10.48;;
9461;SDS011;4769;42.660;23.262;2023-05-24T05:47:10;12.40;;;9.98;;
9461;SDS011;4769;42.660;23.262;2023-05-24T05:49:36;16.73;;;9.98;;
9461;SDS011;4769;42.660;23.262;2023-05-24T05:52:03;13.68;;;9.65;;
9461;SDS011;4769;42.660;23.262;2023-05-24T05:54:29;12.55;;;9.15;;
9461;SDS011;4769;42.660;23.262;2023-05-24T05:56:55;14.80;;;10.07;;
9461;SDS011;4769;42.660;23.262;2023-05-24T05:59:24;14.07;;;9.65;;
9461;SDS011;4769;42.660;23.262;2023-05-24T06:01:50;11.20;;;9.27;;
9461;SDS011;4769;42.660;23.262;2023-05-24T06:04:18;13.43;;;9.70;;
9461;SDS011;4769;42.660;23.262;2023-05-24T06:06:44;11.63;;;9.60;;
9461;SDS011;4769;42.660;23.262;2023-05-24T06:09:09;11.68;;;9.50;;
9461;SDS011;4769;42.660;23.262;2023-05-24T06:11:35;11.80;;;9.30;;
9461;SDS011;4769;42.660;23.262;2023-05-24T06:14:02;15.88;;;9.07;;
9461;SDS011;4769;42.660;23.262;2023-05-24T06:16:32;13.38;;;9.10;;
9461;SDS011;4769;42.660;23.262;2023-05-24T06:18:58;12.90;;;9.68;;
9461;SDS011;4769;42.660;23.262;2023-05-24T06:21:23;13.63;;;9.80;;
9461;SDS011;4769;42.660;23.262;2023-05-24T06:23:49;14.63;;;9.15;;
9461;SDS011;4769;42.660;23.262;2023-05-24T06:26:15;14.48;;;10.13;;
9461;SDS011;4769;42.660;23.262;2023-05-24T06:28:41;12.45;;;9.57;;
9461;SDS011;4769;42.660;23.262;2023-05-24T06:31:06;16.27;;;10.13;;
9461;SDS011;4769;42.660;23.262;2023-05-24T06:33:36;11.20;;;10.02;;
9461;SDS011;4769;42.660;23.262;2023-05-24T06:36:02;17.27;;;10.55;;
9461;SDS011;4769;42.660;23.262;2023-05-24T06:38:28;15.57;;;9.68;;
9461;SDS011;4769;42.660;23.262;2023-05-24T06:40:53;14.15;;;9.50;;
9461;SDS011;4769;42.660;23.262;2023-05-24T06:43:22;18.67;;;9.48;;
9461;SDS011;4769;42.660;23.262;2023-05-24T06:45:48;14.82;;;9.82;;
9461;SDS011;4769;42.660;23.262;2023-05-24T06:48:16;12.45;;;8.35;;
9461;SDS011;4769;42.660;23.262;2023-05-24T06:50:45;10.48;;;7.97;;
9461;SDS011;4769;42.660;23.262;2023-05-24T06:53:10;13.73;;;8.00;;
9461;SDS011;4769;42.660;23.262;2023-05-24T06:55:36;9.20;;;8.25;;
9461;SDS011;4769;42.660;23.262;2023-05-24T06:58:02;9.70;;;7.95;;
9461;SDS011;4769;42.660;23.262;2023-05-24T07:00:28;14.77;;;7.88;;
9461;SDS011;4769;42.660;23.262;2023-05-24T07:02:54;15.93;;;8.48;;
9461;SDS011;4769;42.660;23.262;2023-05-24T07:05:20;11.45;;;8.00;;
9461;SDS011;4769;42.660;23.262;2023-05-24T07:07:48;12.85;;;8.45;;
9461;SDS011;4769;42.660;23.262;2023-05-24T07:10:14;12.98;;;8.98;;
9461;SDS011;4769;42.660;23.262;2023-05-24T07:12:39;17.42;;;13.30;;
9461;SDS011;4769;42.660;23.262;2023-05-24T07:15:06;43.53;;;37.72;;
9461;SDS011;4769;42.660;23.262;2023-05-24T07:17:32;15.00;;;10.77;;
9461;SDS011;4769;42.660;23.262;2023-05-24T07:19:59;11.10;;;7.72;;
9461;SDS011;4769;42.660;23.262;2023-05-24T07:22:25;12.20;;;8.25;;
9461;SDS011;4769;42.660;23.262;2023-05-24T07:24:53;11.43;;;7.78;;
9461;SDS011;4769;42.660;23.262;2023-05-24T07:27:19;11.95;;;8.13;;
9461;SDS011;4769;42.660;23.262;2023-05-24T07:29:45;15.10;;;7.57;;
9461;SDS011;4769;42.660;23.262;2023-05-24T07:32:11;11.88;;;7.13;;
9461;SDS011;4769;42.660;23.262;2023-05-24T07:34:36;7.90;;;6.22;;
9461;SDS011;4769;42.660;23.262;2023-05-24T07:37:02;9.13;;;6.50;;
9461;SDS011;4769;42.660;23.262;2023-05-24T07:39:28;10.25;;;7.18;;
9461;SDS011;4769;42.660;23.262;2023-05-24T07:41:57;10.50;;;7.50;;
9461;SDS011;4769;42.660;23.262;2023-05-24T07:44:22;9.85;;;7.15;;
9461;SDS011;4769;42.660;23.262;2023-05-24T07:46:48;8.63;;;7.07;;
9461;SDS011;4769;42.660;23.262;2023-05-24T07:49:14;9.95;;;7.40;;
9461;SDS011;4769;42.660;23.262;2023-05-24T07:51:40;13.13;;;7.70;;
9461;SDS011;4769;42.660;23.262;2023-05-24T07:54:05;8.75;;;6.68;;
9461;SDS011;4769;42.660;23.262;2023-05-24T07:56:31;7.70;;;5.72;;
9461;SDS011;4769;42.660;23.262;2023-05-24T07:58:59;13.35;;;5.97;;
9461;SDS011;4769;42.660;23.262;2023-05-24T08:01:25;6.88;;;5.72;;
9461;SDS011;4769;42.660;23.262;2023-05-24T08:03:51;7.85;;;5.55;;
9461;SDS011;4769;42.660;23.262;2023-05-24T08:06:16;8.95;;;5.88;;
9461;SDS011;4769;42.660;23.262;2023-05-24T08:08:42;8.07;;;5.70;;
9461;SDS011;4769;42.660;23.262;2023-05-24T08:11:08;8.57;;;5.88;;
9461;SDS011;4769;42.660;23.262;2023-05-24T08:13:33;7.07;;;5.72;;
9461;SDS011;4769;42.660;23.262;2023-05-24T08:16:02;9.93;;;5.47;;
9461;SDS011;4769;42.660;23.262;2023-05-24T08:18:27;8.85;;;5.25;;
9461;SDS011;4769;42.660;23.262;2023-05-24T08:20:53;9.25;;;5.45;;
9461;SDS011;4769;42.660;23.262;2023-05-24T08:23:19;8.40;;;5.60;;
9461;SDS011;4769;42.660;23.262;2023-05-24T08:25:44;7.88;;;5.38;;
9461;SDS011;4769;42.660;23.262;2023-05-24T08:28:10;7.47;;;5.18;;
9461;SDS011;4769;42.660;23.262;2023-05-24T08:30:36;8.00;;;5.18;;
9461;SDS011;4769;42.660;23.262;2023-05-24T08:33:04;10.57;;;5.28;;
9461;SDS011;4769;42.660;23.262;2023-05-24T08:35:31;8.13;;;4.88;;
9461;SDS011;4769;42.660;23.262;2023-05-24T08:37:57;8.75;;;4.93;;
9461;SDS011;4769;42.660;23.262;2023-05-24T08:40:23;8.82;;;5.40;;
9461;SDS011;4769;42.660;23.262;2023-05-24T08:42:49;11.23;;;5.30;;
9461;SDS011;4769;42.660;23.262;2023-05-24T08:45:16;7.68;;;4.38;;
9461;SDS011;4769;42.660;23.262;2023-05-24T08:47:43;12.65;;;4.88;;
9461;SDS011;4769;42.660;23.262;2023-05-24T08:50:13;17.52;;;5.40;;
9461;SDS011;4769;42.660;23.262;2023-05-24T08:52:39;6.28;;;4.65;;
9461;SDS011;4769;42.660;23.262;2023-05-24T08:55:07;6.38;;;4.60;;
9461;SDS011;4769;42.660;23.262;2023-05-24T08:57:33;8.05;;;4.80;;
9461;SDS011;4769;42.660;23.262;2023-05-24T09:00:00;11.52;;;5.10;;
9461;SDS011;4769;42.660;23.262;2023-05-24T09:02:26;9.35;;;4.90;;
9461;SDS011;4769;42.660;23.262;2023-05-24T09:04:52;8.13;;;4.70;;
9461;SDS011;4769;42.660;23.262;2023-05-24T09:07:21;8.38;;;4.50;;
9461;SDS011;4769;42.660;23.262;2023-05-24T09:09:49;8.07;;;5.30;;
9461;SDS011;4769;42.660;23.262;2023-05-24T09:12:17;8.70;;;5.00;;
9461;SDS011;4769;42.660;23.262;2023-05-24T09:14:45;12.15;;;4.55;;
9461;SDS011;4769;42.660;23.262;2023-05-24T09:17:12;5.53;;;4.13;;
9461;SDS011;4769;42.660;23.262;2023-05-24T09:19:38;6.32;;;4.05;;
9461;SDS011;4769;42.660;23.262;2023-05-24T09:22:04;5.00;;;4.32;;
9461;SDS011;4769;42.660;23.262;2023-05-24T09:24:33;4.82;;;4.10;;
9461;SDS011;4769;42.660;23.262;2023-05-24T09:27:05;9.35;;;4.22;;
9461;SDS011;4769;42.660;23.262;2023-05-24T09:29:33;7.65;;;4.10;;
9461;SDS011;4769;42.660;23.262;2023-05-24T09:32:00;10.10;;;4.25;;
9461;SDS011;4769;42.660;23.262;2023-05-24T09:34:25;7.65;;;4.10;;
9461;SDS011;4769;42.660;23.262;2023-05-24T09:36:54;6.07;;;3.42;;
9461;SDS011;4769;42.660;23.262;2023-05-24T09:39:20;9.57;;;4.05;;
9461;SDS011;4769;42.660;23.262;2023-05-24T09:41:53;7.03;;;3.80;;
9461;SDS011;4769;42.660;23.262;2023-05-24T09:44:19;10.95;;;4.28;;
9461;SDS011;4769;42.660;23.262;2023-05-24T09:46:49;5.50;;;4.00;;
9461;SDS011;4769;42.660;23.262;2023-05-24T09:49:15;7.15;;;3.83;;
9461;SDS011;4769;42.660;23.262;2023-05-24T09:51:41;6.75;;;4.20;;
9461;SDS011;4769;42.660;23.262;2023-05-24T09:54:06;5.70;;;3.70;;
9461;SDS011;4769;42.660;23.262;2023-05-24T09:56:33;6.15;;;3.90;;
9461;SDS011;4769;42.660;23.262;2023-05-24T09:59:01;11.68;;;4.13;;
9461;SDS011;4769;42.660;23.262;2023-05-24T10:01:30;4.60;;;3.45;;
9461;SDS011;4769;42.660;23.262;2023-05-24T10:03:56;4.13;;;3.45;;
9461;SDS011;4769;42.660;23.262;2023-05-24T10:06:23;6.80;;;4.85;;
9461;SDS011;4769;42.660;23.262;2023-05-24T10:08:49;5.97;;;4.50;;
9461;SDS011;4769;42.660;23.262;2023-05-24T10:11:15;6.78;;;3.97;;
9461;SDS011;4769;42.660;23.262;2023-05-24T10:13:41;3.30;;;3.00;;
9461;SDS011;4769;42.660;23.262;2023-05-24T10:16:10;5.32;;;3.80;;
9461;SDS011;4769;42.660;23.262;2023-05-24T10:18:37;5.68;;;3.60;;
9461;SDS011;4769;42.660;23.262;2023-05-24T10:21:03;6.10;;;3.80;;
9461;SDS011;4769;42.660;23.262;2023-05-24T10:23:30;7.80;;;4.10;;
9461;SDS011;4769;42.660;23.262;2023-05-24T10:25:59;6.30;;;3.72;;
9461;SDS011;4769;42.660;23.262;2023-05-24T10:28:28;4.70;;;3.85;;
9461;SDS011;4769;42.660;23.262;2023-05-24T10:30:59;5.50;;;3.53;;
9461;SDS011;4769;42.660;23.262;2023-05-24T10:33:29;7.30;;;4.03;;
9461;SDS011;4769;42.660;23.262;2023-05-24T10:35:58;8.05;;;4.00;;
9461;SDS011;4769;42.660;23.262;2023-05-24T10:38:24;7.28;;;3.75;;
9461;SDS011;4769;42.660;23.262;2023-05-24T10:40:50;4.40;;;3.47;;
9461;SDS011;4769;42.660;23.262;2023-05-24T10:43:16;9.00;;;4.25;;
9461;SDS011;4769;42.660;23.262;2023-05-24T10:45:42;4.25;;;3.30;;
9461;SDS011;4769;42.660;23.262;2023-05-24T10:51:00;6.32;;;3.45;;
9461;SDS011;4769;42.660;23.262;2023-05-24T10:53:26;10.70;;;4.25;;
9461;SDS011;4769;42.660;23.262;2023-05-24T10:55:52;5.05;;;3.95;;
9461;SDS011;4769;42.660;23.262;2023-05-24T10:58:18;7.05;;;4.35;;
9461;SDS011;4769;42.660;23.262;2023-05-24T11:00:44;4.57;;;3.75;;
9461;SDS011;4769;42.660;23.262;2023-05-24T11:03:10;5.13;;;3.50;;
9461;SDS011;4769;42.660;23.262;2023-05-24T11:05:50;4.75;;;3.30;;
9461;SDS011;4769;42.660;23.262;2023-05-24T11:08:21;4.18;;;3.40;;
9461;SDS011;4769;42.660;23.262;2023-05-24T11:10:48;12.48;;;5.55;;
9461;SDS011;4769;42.660;23.262;2023-05-24T11:13:14;4.32;;;3.50;;
9461;SDS011;4769;42.660;23.262;2023-05-24T11:15:48;7.00;;;3.63;;
9461;SDS011;4769;42.660;23.262;2023-05-24T11:18:14;4.07;;;3.67;;
9461;SDS011;4769;42.660;23.262;2023-05-24T11:20:40;4.90;;;3.28;;
9461;SDS011;4769;42.660;23.262;2023-05-24T11:23:10;5.25;;;4.03;;
9461;SDS011;4769;42.660;23.262;2023-05-24T11:25:35;6.57;;;3.58;;
9461;SDS011;4769;42.660;23.262;2023-05-24T11:28:01;5.07;;;3.47;;
9461;SDS011;4769;42.660;23.262;2023-05-24T11:30:27;5.40;;;3.60;;
9461;SDS011;4769;42.660;23.262;2023-05-24T11:32:55;5.38;;;3.55;;
9461;SDS011;4769;42.660;23.262;2023-05-24T11:35:20;13.07;;;5.88;;
9461;SDS011;4769;42.660;23.262;2023-05-24T11:37:46;17.17;;;6.80;;
9461;SDS011;4769;42.660;23.262;2023-05-24T11:40:15;5.70;;;3.88;;
9461;SDS011;4769;42.660;23.262;2023-05-24T11:42:41;6.47;;;3.90;;
9461;SDS011;4769;42.660;23.262;2023-05-24T11:45:08;5.47;;;3.85;;
9461;SDS011;4769;42.660;23.262;2023-05-24T11:47:36;6.88;;;4.45;;
9461;SDS011;4769;42.660;23.262;2023-05-24T11:50:02;7.75;;;3.97;;
9461;SDS011;4769;42.660;23.262;2023-05-24T11:52:28;5.20;;;3.75;;
9461;SDS011;4769;42.660;23.262;2023-05-24T11:54:54;5.10;;;3.35;;
9461;SDS011;4769;42.660;23.262;2023-05-24T11:57:24;7.25;;;3.45;;
9461;SDS011;4769;42.660;23.262;2023-05-24T11:59:54;3.97;;;3.50;;
9461;SDS011;4769;42.660;23.262;2023-05-24T12:02:21;6.00;;;3.78;;
9461;SDS011;4769;42.660;23.262;2023-05-24T12:04:47;6.03;;;3.80;;
9461;SDS011;4769;42.660;23.262;2023-05-24T12:07:12;6.97;;;4.05;;
9461;SDS011;4769;42.660;23.262;2023-05-24T12:09:39;3.83;;;3.28;;
9461;SDS011;4769;42.660;23.262;2023-05-24T12:12:05;4.60;;;3.72;;
9461;SDS011;4769;42.660;23.262;2023-05-24T12:14:34;4.10;;;3.38;;
9461;SDS011;4769;42.660;23.262;2023-05-24T12:17:00;5.88;;;3.60;;
9461;SDS011;4769;42.660;23.262;2023-05-24T12:19:29;4.53;;;3.55;;
9461;SDS011;4769;42.660;23.262;2023-05-24T12:21:55;5.30;;;3.38;;
9461;SDS011;4769;42.660;23.262;2023-05-24T12:24:22;3.65;;;3.25;;
9461;SDS011;4769;42.660;23.262;2023-05-24T12:26:49;5.22;;;3.53;;
9461;SDS011;4769;42.660;23.262;2023-05-24T12:29:15;4.40;;;3.35;;
9461;SDS011;4769;42.660;23.262;2023-05-24T12:31:46;4.88;;;3.90;;
9461;SDS011;4769;42.660;23.262;2023-05-24T12:34:12;6.13;;;3.75;;
9461;SDS011;4769;42.660;23.262;2023-05-24T12:36:39;5.25;;;3.60;;
9461;SDS011;4769;42.660;23.262;2023-05-24T12:41:51;3.33;;;3.03;;
9461;SDS011;4769;42.660;23.262;2023-05-24T12:44:21;5.22;;;3.20;;
9461;SDS011;4769;42.660;23.262;2023-05-24T12:46:50;6.13;;;3.65;;
9461;SDS011;4769;42.660;23.262;2023-05-24T12:49:17;5.47;;;4.15;;
9461;SDS011;4769;42.660;23.262;2023-05-24T12:51:43;3.55;;;3.00;;
9461;SDS011;4769;42.660;23.262;2023-05-24T12:54:08;4.72;;;3.58;;
9461;SDS011;4769;42.660;23.262;2023-05-24T12:56:34;11.73;;;4.43;;
9461;SDS011;4769;42.660;23.262;2023-05-24T12:59:00;4.45;;;3.58;;
9461;SDS011;4769;42.660;23.262;2023-05-24T13:01:26;4.10;;;3.40;;
9461;SDS011;4769;42.660;23.262;2023-05-24T13:03:54;4.53;;;3.42;;
9461;SDS011;4769;42.660;23.262;2023-05-24T13:06:20;4.00;;;3.20;;
9461;SDS011;4769;42.660;23.262;2023-05-24T13:08:46;8.32;;;4.38;;
9461;SDS011;4769;42.660;23.262;2023-05-24T13:11:11;5.85;;;3.63;;
9461;SDS011;4769;42.660;23.262;2023-05-24T13:13:37;5.10;;;3.55;;
9461;SDS011;4769;42.660;23.262;2023-05-24T13:16:03;5.22;;;3.55;;
9461;SDS011;4769;42.660;23.262;2023-05-24T13:18:29;7.85;;;3.60;;
9461;SDS011;4769;42.660;23.262;2023-05-24T13:20:58;6.50;;;3.67;;
9461;SDS011;4769;42.660;23.262;2023-05-24T13:23:23;3.88;;;3.25;;
9461;SDS011;4769;42.660;23.262;2023-05-24T13:25:49;10.00;;;3.40;;
9461;SDS011;4769;42.660;23.262;2023-05-24T13:28:15;5.57;;;3.63;;
9461;SDS011;4769;42.660;23.262;2023-05-24T13:30:40;4.32;;;3.80;;
9461;SDS011;4769;42.660;23.262;2023-05-24T13:33:06;5.03;;;3.83;;
9461;SDS011;4769;42.660;23.262;2023-05-24T13:35:32;4.50;;;3.40;;
9461;SDS011;4769;42.660;23.262;2023-05-24T13:38:00;3.60;;;3.30;;
9461;SDS011;4769;42.660;23.262;2023-05-24T13:40:26;4.80;;;3.45;;
9461;SDS011;4769;42.660;23.262;2023-05-24T13:42:53;4.07;;;3.30;;
9461;SDS011;4769;42.660;23.262;2023-05-24T13:45:20;3.72;;;3.42;;
9461;SDS011;4769;42.660;23.262;2023-05-24T13:47:46;3.95;;;3.50;;
9461;SDS011;4769;42.660;23.262;2023-05-24T13:50:12;3.92;;;3.63;;
9461;SDS011;4769;42.660;23.262;2023-05-24T13:52:38;7.97;;;4.25;;
9461;SDS011;4769;42.660;23.262;2023-05-24T13:55:08;5.85;;;4.00;;
9461;SDS011;4769;42.660;23.262;2023-05-24T13:57:34;5.32;;;4.18;;
9461;SDS011;4769;42.660;23.262;2023-05-24T13:59:59;5.72;;;3.97;;
9461;SDS011;4769;42.660;23.262;2023-05-24T14:02:25;6.35;;;3.70;;
9461;SDS011;4769;42.660;23.262;2023-05-24T14:04:51;7.38;;;3.53;;
9461;SDS011;4769;42.660;23.262;2023-05-24T14:07:17;4.75;;;4.03;;
9461;SDS011;4769;42.660;23.262;2023-05-24T14:09:43;5.97;;;4.00;;
9461;SDS011;4769;42.660;23.262;2023-05-24T14:12:12;5.30;;;4.00;;
9461;SDS011;4769;42.660;23.262;2023-05-24T14:14:38;4.45;;;3.83;;
9461;SDS011;4769;42.660;23.262;2023-05-24T14:17:04;7.10;;;4.45;;
9461;SDS011;4769;42.660;23.262;2023-05-24T14:19:29;8.30;;;4.70;;
9461;SDS011;4769;42.660;23.262;2023-05-24T14:21:55;6.07;;;4.32;;
9461;SDS011;4769;42.660;23.262;2023-05-24T14:24:21;5.72;;;4.15;;
9461;SDS011;4769;42.660;23.262;2023-05-24T14:26:47;5.93;;;3.90;;
9461;SDS011;4769;42.660;23.262;2023-05-24T14:29:15;6.15;;;3.83;;
9461;SDS011;4769;42.660;23.262;2023-05-24T14:31:40;4.25;;;3.85;;
9461;SDS011;4769;42.660;23.262;2023-05-24T14:34:07;5.15;;;4.20;;
9461;SDS011;4769;42.660;23.262;2023-05-24T14:36:33;5.45;;;4.40;;
9461;SDS011;4769;42.660;23.262;2023-05-24T14:38:59;4.90;;;4.50;;
9461;SDS011;4769;42.660;23.262;2023-05-24T14:41:24;4.95;;;4.38;;
9461;SDS011;4769;42.660;23.262;2023-05-24T14:43:50;4.40;;;4.00;;
9461;SDS011;4769;42.660;23.262;2023-05-24T14:46:18;5.15;;;4.75;;
9461;SDS011;4769;42.660;23.262;2023-05-24T14:48:44;6.30;;;4.55;;
9461;SDS011;4769;42.660;23.262;2023-05-24T14:51:10;5.07;;;4.10;;
9461;SDS011;4769;42.660;23.262;2023-05-24T14:53:36;5.18;;;3.90;;
9461;SDS011;4769;42.660;23.262;2023-05-24T14:56:01;4.50;;;3.92;;
9461;SDS011;4769;42.660;23.262;2023-05-24T14:58:27;6.68;;;4.53;;
9461;SDS011;4769;42.660;23.262;2023-05-24T15:00:53;5.97;;;4.25;;
9461;SDS011;4769;42.660;23.262;2023-05-24T15:03:21;6.35;;;4.20;;
9461;SDS011;4769;42.660;23.262;2023-05-24T15:05:47;6.75;;;4.43;;